Rockenbach Airport

Jump to: basic info | weather | runways | comments

Related pages: nearby airports | nearby navaids | notams | map

Basic information (top)

Codes: LL97
Location: lon 42.338902, lat -88.084801, elev 800 ft / 244 m msl
Status: small_airport

Weather (top)

Current conditions for Waukegan Regional Airport 11nm (20km) ENE (rec'd 2014/09/17 02:52Z):

KUGN 170252Z AUTO 00000KT 9SM CLR 08/07 A3009 RMK AO2 SLP190 T00780067 58001

Airport forecast for Kenosha Regional Airport 17nm (31km) NNE (rec'd 2014/09/16 00:30Z):

TAF KENW 162327Z 1700/1724 14005KT P6SM SKC 
     FM170200 VRB03KT P6SM SKC 
     FM171000 00000KT 3SM BR SKC 
      TEMPO 1710/1712 1SM BR 
     FM171400 25007KT P6SM SCT050 
      TEMPO 1714/1718 BKN050 
     FM172100 17007KT P6SM SCT060

Runways (top)

N/S: 2,000 x 100 ft (610 x 30 m) — grass — not lighted

Latest comments (top)

No comments yet for Rockenbach Airport

More... (top)

See also NOTAMs and nearby airports and navaids, or visit the Rockenbach Airport page at the main OurAirports website..